createdAt,value
2023-05-14T00:03:02.008Z,10.60
2023-05-14T00:06:39.098Z,9.95
2023-05-14T00:13:29.797Z,9.10
2023-05-14T00:17:01.034Z,12.45
2023-05-14T00:20:20.537Z,9.52
2023-05-14T00:23:49.333Z,10.25
2023-05-14T00:27:08.563Z,12.13
2023-05-14T00:30:29.852Z,10.20
2023-05-14T00:33:59.895Z,19.65
2023-05-14T00:37:41.030Z,10.95
2023-05-14T00:40:58.509Z,10.02
2023-05-14T00:44:10.705Z,12.47
2023-05-14T00:47:49.517Z,11.47
2023-05-14T00:51:27.526Z,9.20
2023-05-14T00:58:48.764Z,9.60
2023-05-14T01:02:03.341Z,9.20
2023-05-14T01:05:40.622Z,10.53
2023-05-14T01:09:19.101Z,12.10
2023-05-14T01:13:07.292Z,15.43
2023-05-14T01:20:16.464Z,11.00
2023-05-14T01:23:42.616Z,14.70
2023-05-14T01:27:06.478Z,10.85
2023-05-14T01:30:22.748Z,12.55
2023-05-14T01:33:50.610Z,9.30
2023-05-14T01:37:22.246Z,8.90
2023-05-14T01:40:40.987Z,11.87
2023-05-14T01:43:47.627Z,10.27
2023-05-14T01:47:05.168Z,9.93
2023-05-14T01:53:47.168Z,11.57
2023-05-14T01:57:23.407Z,11.27
2023-05-14T02:00:54.283Z,10.80
2023-05-14T02:04:30.270Z,10.15
2023-05-14T02:08:10.955Z,11.75
2023-05-14T02:11:22.382Z,12.73
2023-05-14T02:14:44.148Z,9.60
2023-05-14T02:18:06.083Z,11.25
2023-05-14T02:21:43.057Z,9.75
2023-05-14T02:24:55.288Z,8.57
2023-05-14T02:31:45.091Z,11.70
2023-05-14T02:35:00.376Z,10.82
2023-05-14T02:38:16.770Z,11.23
2023-05-14T02:41:35.199Z,9.55
2023-05-14T02:45:09.368Z,10.53
2023-05-14T02:48:47.572Z,9.23
2023-05-14T02:55:34.288Z,10.27
2023-05-14T02:58:51.764Z,9.75
2023-05-14T03:02:21.652Z,9.80
2023-05-14T03:16:23.734Z,10.77
2023-05-14T03:19:38.113Z,9.70
2023-05-14T03:23:11.502Z,9.43
2023-05-14T03:26:31.999Z,10.38
2023-05-14T03:29:58.961Z,15.68
2023-05-14T03:33:23.742Z,9.50
2023-05-14T03:36:32.864Z,13.67
2023-05-14T03:39:53.627Z,7.93
2023-05-14T03:43:29.206Z,8.25
2023-05-14T03:46:58.795Z,12.15
2023-05-14T03:50:16.768Z,8.73
2023-05-14T03:53:44.762Z,7.17
2023-05-14T03:56:56.078Z,7.93
2023-05-14T04:00:19.855Z,9.80
2023-05-14T04:03:25.545Z,8.95
2023-05-14T04:06:54.367Z,9.75
2023-05-14T04:10:27.276Z,8.23
2023-05-14T04:14:01.089Z,8.77
2023-05-14T04:17:20.129Z,9.38
2023-05-14T04:20:49.157Z,9.57
2023-05-14T04:24:13.417Z,9.55
2023-05-14T04:27:41.093Z,7.93
2023-05-14T04:30:58.339Z,8.63
2023-05-14T04:34:17.351Z,7.90
2023-05-14T04:41:46.572Z,9.32
2023-05-14T04:45:14.869Z,12.03
2023-05-14T04:48:52.118Z,7.27
2023-05-14T04:52:16.855Z,9.18
2023-05-14T04:55:47.905Z,7.95
2023-05-14T04:59:19.747Z,7.87
2023-05-14T05:02:44.425Z,7.57
2023-05-14T05:06:10.598Z,9.23
2023-05-14T05:09:43.895Z,8.70
2023-05-14T05:12:59.248Z,8.65
2023-05-14T05:16:25.496Z,10.48
2023-05-14T05:20:01.131Z,10.00
2023-05-14T05:23:25.773Z,8.27
2023-05-14T05:27:04.297Z,7.15
2023-05-14T05:34:11.894Z,7.30
2023-05-14T05:37:18.775Z,9.83
2023-05-14T05:40:42.329Z,7.17
2023-05-14T05:44:05.475Z,9.20
2023-05-14T05:47:16.262Z,8.75
2023-05-14T05:50:44.934Z,6.18
2023-05-14T05:57:18.922Z,6.03
2023-05-14T06:00:33.638Z,6.07
2023-05-14T06:03:51.338Z,5.45
2023-05-14T06:06:57.798Z,6.28
2023-05-14T06:10:09.141Z,3.65
2023-05-14T06:16:47.668Z,4.43
2023-05-14T06:20:13.569Z,5.60
2023-05-14T06:27:24.681Z,5.57
2023-05-14T06:30:41.121Z,4.90
2023-05-14T06:33:50.912Z,5.00
2023-05-14T06:37:08.749Z,5.60
2023-05-14T06:40:30.559Z,4.40
2023-05-14T06:43:56.005Z,5.70
2023-05-14T06:50:30.246Z,7.25
2023-05-14T06:53:41.587Z,6.85
2023-05-14T06:56:56.588Z,7.15
2023-05-14T07:00:00.100Z,5.12
2023-05-14T07:03:22.297Z,4.40
2023-05-14T07:06:35.676Z,6.95
2023-05-14T07:09:42.821Z,4.50
2023-05-14T07:12:59.769Z,6.05
2023-05-14T07:16:20.327Z,5.78
2023-05-14T07:23:04.458Z,6.12
2023-05-14T07:26:11.233Z,4.30
2023-05-14T07:29:33.028Z,4.70
2023-05-14T07:32:47.017Z,6.57
2023-05-14T07:36:13.963Z,6.73
2023-05-14T07:39:35.835Z,4.22
2023-05-14T07:46:38.531Z,5.12
2023-05-14T07:49:54.718Z,6.10
2023-05-14T07:53:26.747Z,4.37
2023-05-14T07:56:38.545Z,4.45
2023-05-14T08:03:24.022Z,4.55
2023-05-14T08:06:45.431Z,4.57
2023-05-14T08:09:53.813Z,3.43
2023-05-14T08:13:11.165Z,3.75
2023-05-14T08:16:23.262Z,5.85
2023-05-14T08:19:38.951Z,3.08
2023-05-14T08:22:57.388Z,3.90
2023-05-14T08:26:27.386Z,3.50
2023-05-14T08:33:23.590Z,3.87
2023-05-14T08:39:57.334Z,2.60
2023-05-14T08:43:21.030Z,3.07
2023-05-14T08:46:59.641Z,3.33
2023-05-14T08:50:17.560Z,2.90
2023-05-14T08:53:45.766Z,4.22
2023-05-14T08:57:00.200Z,8.20
2023-05-14T09:00:35.942Z,2.70
2023-05-14T09:03:51.780Z,5.65
2023-05-14T09:10:37.174Z,4.20
2023-05-14T09:17:28.119Z,3.97
2023-05-14T09:20:36.639Z,5.37
2023-05-14T09:23:58.762Z,4.18
2023-05-14T09:27:10.905Z,2.72
2023-05-14T09:34:06.683Z,3.13
2023-05-14T09:37:15.463Z,3.65
2023-05-14T09:40:29.126Z,6.55
2023-05-14T09:43:45.648Z,4.78
2023-05-14T09:47:00.728Z,3.40
2023-05-14T09:50:26.834Z,3.33
2023-05-14T09:53:36.198Z,3.75
2023-05-14T09:56:49.652Z,5.70
2023-05-14T10:00:08.944Z,4.10
2023-05-14T10:03:45.644Z,4.12
2023-05-14T10:10:22.153Z,3.10
2023-05-14T10:13:43.946Z,3.08
2023-05-14T10:16:58.504Z,3.90
2023-05-14T10:20:16.251Z,3.45
2023-05-14T10:30:30.255Z,2.40
2023-05-14T10:34:18.985Z,4.05
2023-05-14T10:37:42.649Z,3.12
2023-05-14T10:41:01.327Z,7.80
2023-05-14T10:44:40.482Z,3.33
2023-05-14T10:48:04.513Z,4.15
2023-05-14T10:51:14.658Z,4.32
2023-05-14T10:54:20.361Z,2.87
2023-05-14T10:57:45.616Z,2.43
2023-05-14T11:01:15.598Z,3.10
2023-05-14T11:04:29.611Z,4.50
2023-05-14T11:07:55.952Z,3.42
2023-05-14T11:14:49.938Z,5.30
2023-05-14T11:18:15.227Z,2.35
2023-05-14T11:24:41.723Z,2.50
2023-05-14T11:27:49.443Z,3.80
2023-05-14T11:31:09.863Z,4.90
2023-05-14T11:34:18.444Z,6.65
2023-05-14T11:37:40.432Z,2.90
2023-05-14T11:41:06.971Z,4.30
2023-05-14T11:48:00.548Z,2.90
2023-05-14T11:51:18.500Z,3.87
2023-05-14T11:54:29.835Z,4.55
2023-05-14T11:57:49.357Z,2.78
2023-05-14T12:01:36.708Z,7.47
2023-05-14T12:05:09.174Z,5.73
2023-05-14T12:08:22.415Z,4.47
2023-05-14T12:11:47.428Z,5.47
2023-05-14T12:18:32.012Z,5.25
2023-05-14T12:21:42.134Z,6.20
2023-05-14T12:25:08.547Z,4.55
2023-05-14T12:28:22.351Z,3.05
2023-05-14T12:31:39.684Z,11.45
2023-05-14T12:34:53.710Z,8.10
2023-05-14T12:38:03.400Z,6.37
2023-05-14T12:41:22.639Z,3.80
2023-05-14T12:44:38.406Z,5.55
2023-05-14T12:48:02.597Z,5.45
2023-05-14T12:51:26.949Z,3.75
2023-05-14T12:54:33.164Z,4.57
2023-05-14T12:57:39.878Z,3.53
2023-05-14T13:01:06.826Z,4.05
2023-05-14T13:04:52.949Z,4.35
2023-05-14T13:08:20.838Z,4.93
2023-05-14T13:11:35.495Z,4.10
2023-05-14T13:14:42.601Z,4.57
2023-05-14T13:18:12.151Z,2.87
2023-05-14T13:21:21.035Z,3.33
2023-05-14T13:24:29.453Z,4.05
2023-05-14T13:28:09.409Z,3.40
2023-05-14T13:31:19.018Z,5.05
2023-05-14T13:34:32.650Z,4.10
2023-05-14T13:37:48.664Z,4.03
2023-05-14T13:41:37.514Z,4.85
2023-05-14T13:44:59.683Z,4.40
2023-05-14T13:48:45.930Z,7.97
2023-05-14T13:52:03.631Z,7.12
2023-05-14T13:55:23.021Z,4.37
2023-05-14T13:58:33.677Z,4.37
2023-05-14T14:01:47.370Z,6.53
2023-05-14T14:05:03.685Z,4.03
2023-05-14T14:08:40.707Z,4.55
2023-05-14T14:12:02.875Z,4.60
2023-05-14T14:15:17.736Z,4.43
2023-05-14T14:18:44.235Z,3.97
2023-05-14T14:22:08.418Z,4.75
2023-05-14T14:28:49.056Z,4.37
2023-05-14T14:32:36.929Z,5.18
2023-05-14T14:35:58.173Z,6.67
2023-05-14T14:39:05.441Z,4.37
2023-05-14T14:45:55.127Z,5.95
2023-05-14T14:49:15.667Z,5.87
2023-05-14T14:52:25.979Z,4.80
2023-05-14T14:55:36.028Z,4.47
2023-05-14T14:58:46.828Z,4.72
2023-05-14T15:02:09.235Z,5.87
2023-05-14T15:09:38.810Z,5.67
2023-05-14T15:13:08.969Z,6.72
2023-05-14T15:16:27.055Z,7.57
2023-05-14T15:19:36.356Z,4.68
2023-05-14T15:22:46.289Z,9.88
2023-05-14T15:26:08.011Z,8.03
2023-05-14T15:29:29.136Z,6.03
2023-05-14T15:33:04.365Z,4.65
2023-05-14T15:36:18.551Z,8.15
2023-05-14T15:39:48.171Z,6.37
2023-05-14T15:43:01.111Z,6.30
2023-05-14T15:46:33.395Z,6.10
2023-05-14T15:49:43.162Z,6.60
2023-05-14T15:53:03.295Z,6.10
2023-05-14T15:56:13.585Z,6.22
2023-05-14T15:59:32.178Z,5.10
2023-05-14T16:02:58.179Z,7.22
2023-05-14T16:06:11.189Z,5.37
2023-05-14T16:09:37.712Z,6.32
2023-05-14T16:12:52.957Z,7.55
2023-05-14T16:16:00.250Z,6.57
2023-05-14T16:19:22.944Z,7.32
2023-05-14T16:22:48.045Z,7.10
2023-05-14T16:26:13.900Z,6.82
2023-05-14T16:29:36.570Z,10.43
2023-05-14T16:33:03.632Z,7.90
2023-05-14T16:36:22.711Z,11.95
2023-05-14T16:39:37.873Z,6.25
2023-05-14T16:43:05.960Z,9.43
2023-05-14T16:46:29.550Z,9.38
2023-05-14T16:49:53.743Z,6.50
2023-05-14T16:53:03.283Z,7.28
2023-05-14T16:56:18.194Z,6.68
2023-05-14T16:59:35.628Z,8.75
2023-05-14T17:02:42.708Z,8.00
2023-05-14T17:05:54.316Z,7.90
2023-05-14T17:09:08.040Z,9.13
2023-05-14T17:12:28.639Z,9.00
2023-05-14T17:16:04.257Z,8.70
2023-05-14T17:19:25.384Z,10.57
2023-05-14T17:22:48.060Z,9.03
2023-05-14T17:25:56.699Z,10.07
2023-05-14T17:29:02.754Z,11.23
2023-05-14T17:32:32.974Z,13.55
2023-05-14T17:35:46.978Z,20.02
2023-05-14T17:39:05.490Z,15.67
2023-05-14T17:42:17.423Z,11.82
2023-05-14T17:45:53.768Z,10.43
2023-05-14T17:49:14.499Z,8.63
2023-05-14T17:52:30.116Z,10.03
2023-05-14T17:55:54.445Z,9.67
2023-05-14T17:59:16.068Z,7.72
2023-05-14T18:02:34.587Z,10.05
2023-05-14T18:05:54.263Z,10.73
2023-05-14T18:09:12.275Z,10.77
2023-05-14T18:12:30.803Z,11.20
2023-05-14T18:15:44.911Z,10.02
2023-05-14T18:18:53.651Z,11.18
2023-05-14T18:22:08.249Z,10.43
2023-05-14T18:28:57.942Z,12.70
2023-05-14T18:32:19.604Z,13.05
2023-05-14T18:35:48.397Z,11.27
2023-05-14T18:38:55.540Z,12.98
2023-05-14T18:42:20.876Z,12.13
2023-05-14T18:45:41.452Z,11.57
2023-05-14T18:49:13.769Z,10.40
2023-05-14T18:52:45.914Z,12.73
2023-05-14T18:55:58.067Z,13.43
2023-05-14T18:59:12.717Z,13.77
2023-05-14T19:02:24.573Z,12.60
2023-05-14T19:05:34.872Z,12.35
2023-05-14T19:09:25.014Z,14.13
2023-05-14T19:12:47.318Z,10.68
2023-05-14T19:15:57.204Z,17.20
2023-05-14T19:19:04.883Z,11.33
2023-05-14T19:22:30.861Z,12.45
2023-05-14T19:26:08.595Z,10.45
2023-05-14T19:33:01.287Z,12.53
2023-05-14T19:39:47.863Z,10.90
2023-05-14T19:42:59.132Z,10.15
2023-05-14T19:46:15.380Z,12.57
2023-05-14T19:52:47.584Z,8.73
2023-05-14T19:56:27.276Z,10.10
2023-05-14T19:59:40.671Z,11.15
2023-05-14T20:03:14.623Z,12.80
2023-05-14T20:06:34.833Z,9.40
2023-05-14T20:10:10.018Z,11.30
2023-05-14T20:17:04.119Z,9.18
2023-05-14T20:20:14.628Z,8.70
2023-05-14T20:24:17.317Z,8.33
2023-05-14T20:27:34.729Z,7.73
2023-05-14T20:30:58.526Z,9.10
2023-05-14T20:34:31.001Z,8.18
2023-05-14T20:37:54.137Z,7.82
2023-05-14T20:41:15.110Z,7.63
2023-05-14T20:44:37.190Z,7.40
2023-05-14T20:47:57.026Z,6.18
2023-05-14T20:51:15.212Z,7.43
2023-05-14T20:54:37.650Z,6.00
2023-05-14T20:57:53.361Z,7.67
2023-05-14T21:01:19.097Z,8.03
2023-05-14T21:08:33.055Z,6.20
2023-05-14T21:12:15.117Z,6.37
2023-05-14T21:15:34.098Z,6.30
2023-05-14T21:18:46.833Z,6.40
2023-05-14T21:22:09.031Z,7.25
2023-05-14T21:25:25.093Z,7.12
2023-05-14T21:28:44.241Z,7.65
2023-05-14T21:32:00.761Z,5.40
2023-05-14T21:35:29.586Z,7.57
2023-05-14T21:38:48.161Z,6.78
2023-05-14T21:42:06.936Z,9.57
2023-05-14T21:45:23.879Z,7.95
2023-05-14T21:48:32.753Z,7.50
2023-05-14T21:51:40.784Z,5.67
2023-05-14T21:54:59.889Z,8.48
2023-05-14T21:58:22.053Z,6.75
2023-05-14T22:05:20.718Z,6.07
2023-05-14T22:08:30.177Z,6.50
2023-05-14T22:11:54.175Z,9.52
2023-05-14T22:15:16.358Z,8.10
2023-05-14T22:19:01.799Z,7.72
2023-05-14T22:22:32.891Z,7.37
2023-05-14T22:25:55.979Z,5.83
2023-05-14T22:29:31.579Z,9.35
2023-05-14T22:32:58.980Z,9.27
2023-05-14T22:40:11.772Z,4.70
2023-05-14T22:43:28.272Z,4.87
2023-05-14T22:50:36.395Z,6.32
2023-05-14T22:54:08.531Z,11.95
2023-05-14T22:57:28.956Z,5.43
2023-05-14T23:00:51.451Z,5.87
2023-05-14T23:04:20.217Z,6.47
2023-05-14T23:07:41.783Z,5.28
2023-05-14T23:10:58.306Z,6.32
2023-05-14T23:14:13.711Z,7.00
2023-05-14T23:17:32.740Z,5.77
2023-05-14T23:24:29.435Z,6.18
2023-05-14T23:27:39.285Z,6.03
2023-05-14T23:30:52.991Z,4.37
2023-05-14T23:34:28.683Z,15.10
2023-05-14T23:37:54.657Z,5.22
2023-05-14T23:41:33.670Z,4.37
2023-05-14T23:44:54.236Z,7.15
2023-05-14T23:48:31.157Z,7.23
2023-05-14T23:51:46.454Z,9.83
2023-05-14T23:55:01.957Z,4.85
2023-05-14T23:58:32.348Z,5.93
